sensor_id;sensor_type;location;lat;lon;timestamp;temperature;humidity
70269;DHT22;58514;48.398;-4.274;2022-08-03T00:01:43;21.50;71.70
70269;DHT22;58514;48.398;-4.274;2022-08-03T00:04:09;21.40;71.60
70269;DHT22;58514;48.398;-4.274;2022-08-03T00:06:35;21.40;72.20
70269;DHT22;58514;48.398;-4.274;2022-08-03T00:09:01;21.40;72.20
70269;DHT22;58514;48.398;-4.274;2022-08-03T00:11:26;21.30;72.10
70269;DHT22;58514;48.398;-4.274;2022-08-03T00:13:52;21.30;72.40
70269;DHT22;58514;48.398;-4.274;2022-08-03T00:16:17;21.30;73.00
70269;DHT22;58514;48.398;-4.274;2022-08-03T00:18:43;21.30;73.20
70269;DHT22;58514;48.398;-4.274;2022-08-03T00:27:00;21.40;73.00
70269;DHT22;58514;48.398;-4.274;2022-08-03T00:29:26;21.40;73.00
70269;DHT22;58514;48.398;-4.274;2022-08-03T00:31:51;21.40;74.00
70269;DHT22;58514;48.398;-4.274;2022-08-03T00:34:17;21.30;73.40
70269;DHT22;58514;48.398;-4.274;2022-08-03T00:36:42;21.30;73.40
70269;DHT22;58514;48.398;-4.274;2022-08-03T00:39:08;21.20;73.60
70269;DHT22;58514;48.398;-4.274;2022-08-03T00:41:33;21.30;74.10
70269;DHT22;58514;48.398;-4.274;2022-08-03T00:43:59;21.20;74.30
70269;DHT22;58514;48.398;-4.274;2022-08-03T00:46:24;21.20;74.70
70269;DHT22;58514;48.398;-4.274;2022-08-03T00:48:50;21.20;74.90
70269;DHT22;58514;48.398;-4.274;2022-08-03T00:51:16;21.20;74.50
70269;DHT22;58514;48.398;-4.274;2022-08-03T00:53:42;21.30;75.00
70269;DHT22;58514;48.398;-4.274;2022-08-03T00:56:08;21.30;74.70
70269;DHT22;58514;48.398;-4.274;2022-08-03T00:58:34;21.30;74.80
70269;DHT22;58514;48.398;-4.274;2022-08-03T01:00:59;21.20;74.60
70269;DHT22;58514;48.398;-4.274;2022-08-03T01:03:25;21.20;75.10
70269;DHT22;58514;48.398;-4.274;2022-08-03T01:15:06;21.10;74.90
70269;DHT22;58514;48.398;-4.274;2022-08-03T01:19:53;21.00;75.30
70269;DHT22;58514;48.398;-4.274;2022-08-03T01:27:18;21.00;75.60
70269;DHT22;58514;48.398;-4.274;2022-08-03T01:29:49;21.00;75.30
70269;DHT22;58514;48.398;-4.274;2022-08-03T01:35:09;20.90;76.30
70269;DHT22;58514;48.398;-4.274;2022-08-03T01:37:46;21.00;76.80
70269;DHT22;58514;48.398;-4.274;2022-08-03T01:40:14;21.00;76.70
70269;DHT22;58514;48.398;-4.274;2022-08-03T01:42:40;21.00;76.80
70269;DHT22;58514;48.398;-4.274;2022-08-03T01:45:08;21.00;76.60
70269;DHT22;58514;48.398;-4.274;2022-08-03T01:47:35;21.00;76.30
70269;DHT22;58514;48.398;-4.274;2022-08-03T01:50:01;21.00;76.20
70269;DHT22;58514;48.398;-4.274;2022-08-03T01:52:27;20.90;76.30
70269;DHT22;58514;48.398;-4.274;2022-08-03T01:54:54;20.90;77.20
70269;DHT22;58514;48.398;-4.274;2022-08-03T01:57:20;20.90;76.40
70269;DHT22;58514;48.398;-4.274;2022-08-03T01:59:47;20.90;76.50
70269;DHT22;58514;48.398;-4.274;2022-08-03T02:02:15;20.80;76.30
70269;DHT22;58514;48.398;-4.274;2022-08-03T02:04:41;20.80;76.80
70269;DHT22;58514;48.398;-4.274;2022-08-03T02:07:08;20.80;77.00
70269;DHT22;58514;48.398;-4.274;2022-08-03T02:09:36;20.80;77.00
70269;DHT22;58514;48.398;-4.274;2022-08-03T02:12:03;20.80;77.00
70269;DHT22;58514;48.398;-4.274;2022-08-03T02:14:31;20.80;77.20
70269;DHT22;58514;48.398;-4.274;2022-08-03T02:16:58;20.80;77.40
70269;DHT22;58514;48.398;-4.274;2022-08-03T02:19:24;20.80;77.80
70269;DHT22;58514;48.398;-4.274;2022-08-03T02:21:50;20.80;78.00
70269;DHT22;58514;48.398;-4.274;2022-08-03T02:24:15;20.80;77.80
70269;DHT22;58514;48.398;-4.274;2022-08-03T02:26:41;20.90;78.00
70269;DHT22;58514;48.398;-4.274;2022-08-03T02:29:10;20.90;78.60
70269;DHT22;58514;48.398;-4.274;2022-08-03T02:31:37;20.90;78.60
70269;DHT22;58514;48.398;-4.274;2022-08-03T02:34:07;20.90;78.60
70269;DHT22;58514;48.398;-4.274;2022-08-03T02:36:34;20.90;78.20
70269;DHT22;58514;48.398;-4.274;2022-08-03T02:39:01;20.90;78.00
70269;DHT22;58514;48.398;-4.274;2022-08-03T02:41:37;20.90;78.10
70269;DHT22;58514;48.398;-4.274;2022-08-03T02:44:06;20.90;78.90
70269;DHT22;58514;48.398;-4.274;2022-08-03T02:46:33;20.90;78.30
70269;DHT22;58514;48.398;-4.274;2022-08-03T02:49:00;20.80;79.30
70269;DHT22;58514;48.398;-4.274;2022-08-03T02:51:27;20.80;78.70
70269;DHT22;58514;48.398;-4.274;2022-08-03T02:53:54;20.80;79.00
70269;DHT22;58514;48.398;-4.274;2022-08-03T02:56:21;20.80;78.90
70269;DHT22;58514;48.398;-4.274;2022-08-03T02:58:46;20.80;79.40
70269;DHT22;58514;48.398;-4.274;2022-08-03T03:01:14;20.80;79.30
70269;DHT22;58514;48.398;-4.274;2022-08-03T03:03:40;20.80;79.20
70269;DHT22;58514;48.398;-4.274;2022-08-03T03:06:06;20.80;79.50
70269;DHT22;58514;48.398;-4.274;2022-08-03T03:08:32;20.80;79.40
70269;DHT22;58514;48.398;-4.274;2022-08-03T03:10:58;20.70;79.30
70269;DHT22;58514;48.398;-4.274;2022-08-03T03:13:25;20.70;80.20
70269;DHT22;58514;48.398;-4.274;2022-08-03T03:15:52;20.70;79.40
70269;DHT22;58514;48.398;-4.274;2022-08-03T03:18:19;20.70;79.60
70269;DHT22;58514;48.398;-4.274;2022-08-03T03:20:45;20.70;79.70
70269;DHT22;58514;48.398;-4.274;2022-08-03T03:23:12;20.70;79.60
70269;DHT22;58514;48.398;-4.274;2022-08-03T03:25:37;20.70;79.80
70269;DHT22;58514;48.398;-4.274;2022-08-03T03:28:04;20.70;79.40
70269;DHT22;58514;48.398;-4.274;2022-08-03T03:30:29;20.60;79.60
70269;DHT22;58514;48.398;-4.274;2022-08-03T03:32:56;20.60;80.00
70269;DHT22;58514;48.398;-4.274;2022-08-03T03:35:22;20.60;79.80
70269;DHT22;58514;48.398;-4.274;2022-08-03T03:37:48;20.60;79.80
70269;DHT22;58514;48.398;-4.274;2022-08-03T03:40:13;20.50;80.10
70269;DHT22;58514;48.398;-4.274;2022-08-03T03:42:39;20.60;80.30
70269;DHT22;58514;48.398;-4.274;2022-08-03T03:45:05;20.50;80.50
70269;DHT22;58514;48.398;-4.274;2022-08-03T03:47:32;20.50;80.30
70269;DHT22;58514;48.398;-4.274;2022-08-03T03:49:58;20.50;80.30
70269;DHT22;58514;48.398;-4.274;2022-08-03T03:52:23;20.50;80.50
70269;DHT22;58514;48.398;-4.274;2022-08-03T03:54:49;20.40;80.90
70269;DHT22;58514;48.398;-4.274;2022-08-03T03:57:14;20.30;80.20
70269;DHT22;58514;48.398;-4.274;2022-08-03T03:59:40;20.30;80.50
70269;DHT22;58514;48.398;-4.274;2022-08-03T04:02:07;20.30;80.60
70269;DHT22;58514;48.398;-4.274;2022-08-03T04:04:33;20.40;80.60
70269;DHT22;58514;48.398;-4.274;2022-08-03T04:07:18;20.40;80.80
70269;DHT22;58514;48.398;-4.274;2022-08-03T04:10:10;20.40;80.70
70269;DHT22;58514;48.398;-4.274;2022-08-03T04:12:55;20.40;80.80
70269;DHT22;58514;48.398;-4.274;2022-08-03T04:15:21;20.30;80.80
70269;DHT22;58514;48.398;-4.274;2022-08-03T04:17:48;20.30;80.90
70269;DHT22;58514;48.398;-4.274;2022-08-03T04:20:15;20.30;81.10
70269;DHT22;58514;48.398;-4.274;2022-08-03T04:22:42;20.30;81.20
70269;DHT22;58514;48.398;-4.274;2022-08-03T04:25:08;20.40;81.10
70269;DHT22;58514;48.398;-4.274;2022-08-03T04:27:38;20.30;81.00
70269;DHT22;58514;48.398;-4.274;2022-08-03T04:30:04;20.30;80.90
70269;DHT22;58514;48.398;-4.274;2022-08-03T04:32:31;20.30;81.00
70269;DHT22;58514;48.398;-4.274;2022-08-03T04:34:56;20.30;81.00
70269;DHT22;58514;48.398;-4.274;2022-08-03T04:37:25;20.30;81.20
70269;DHT22;58514;48.398;-4.274;2022-08-03T04:39:51;20.30;81.10
70269;DHT22;58514;48.398;-4.274;2022-08-03T04:42:18;20.30;81.40
70269;DHT22;58514;48.398;-4.274;2022-08-03T04:44:45;20.30;81.50
70269;DHT22;58514;48.398;-4.274;2022-08-03T04:47:11;20.30;81.60
70269;DHT22;58514;48.398;-4.274;2022-08-03T04:49:36;20.20;81.80
70269;DHT22;58514;48.398;-4.274;2022-08-03T04:52:03;20.30;81.80
70269;DHT22;58514;48.398;-4.274;2022-08-03T04:54:29;20.30;81.80
70269;DHT22;58514;48.398;-4.274;2022-08-03T04:56:55;20.30;81.80
70269;DHT22;58514;48.398;-4.274;2022-08-03T04:59:20;20.20;81.80
70269;DHT22;58514;48.398;-4.274;2022-08-03T05:01:46;20.30;81.80
70269;DHT22;58514;48.398;-4.274;2022-08-03T05:04:11;20.30;81.90
70269;DHT22;58514;48.398;-4.274;2022-08-03T05:06:37;20.30;81.90
70269;DHT22;58514;48.398;-4.274;2022-08-03T05:09:03;20.30;82.30
70269;DHT22;58514;48.398;-4.274;2022-08-03T05:11:28;20.30;82.20
70269;DHT22;58514;48.398;-4.274;2022-08-03T05:13:54;20.20;82.00
70269;DHT22;58514;48.398;-4.274;2022-08-03T05:16:19;20.30;82.00
70269;DHT22;58514;48.398;-4.274;2022-08-03T05:18:45;20.30;82.10
70269;DHT22;58514;48.398;-4.274;2022-08-03T05:21:11;20.30;82.40
70269;DHT22;58514;48.398;-4.274;2022-08-03T05:23:38;20.30;82.50
70269;DHT22;58514;48.398;-4.274;2022-08-03T05:26:04;20.20;82.40
70269;DHT22;58514;48.398;-4.274;2022-08-03T05:28:30;20.30;82.60
70269;DHT22;58514;48.398;-4.274;2022-08-03T05:30:55;20.30;82.50
70269;DHT22;58514;48.398;-4.274;2022-08-03T05:33:21;20.30;82.70
70269;DHT22;58514;48.398;-4.274;2022-08-03T05:35:47;20.30;82.90
70269;DHT22;58514;48.398;-4.274;2022-08-03T05:38:12;20.30;82.90
70269;DHT22;58514;48.398;-4.274;2022-08-03T05:40:38;20.30;82.90
70269;DHT22;58514;48.398;-4.274;2022-08-03T05:43:03;20.30;82.90
70269;DHT22;58514;48.398;-4.274;2022-08-03T05:45:29;20.30;82.80
70269;DHT22;58514;48.398;-4.274;2022-08-03T05:47:54;20.30;82.80
70269;DHT22;58514;48.398;-4.274;2022-08-03T05:50:20;20.30;82.90
70269;DHT22;58514;48.398;-4.274;2022-08-03T05:52:47;20.20;83.10
70269;DHT22;58514;48.398;-4.274;2022-08-03T05:55:13;20.20;83.10
70269;DHT22;58514;48.398;-4.274;2022-08-03T05:57:38;20.20;83.10
70269;DHT22;58514;48.398;-4.274;2022-08-03T06:00:08;20.20;83.10
70269;DHT22;58514;48.398;-4.274;2022-08-03T06:02:34;20.20;83.50
70269;DHT22;58514;48.398;-4.274;2022-08-03T06:05:00;20.20;83.70
70269;DHT22;58514;48.398;-4.274;2022-08-03T06:07:26;20.30;83.60
70269;DHT22;58514;48.398;-4.274;2022-08-03T06:09:52;20.30;83.50
70269;DHT22;58514;48.398;-4.274;2022-08-03T06:12:18;20.30;83.00
70269;DHT22;58514;48.398;-4.274;2022-08-03T06:14:43;20.30;83.00
70269;DHT22;58514;48.398;-4.274;2022-08-03T06:17:09;20.30;83.20
70269;DHT22;58514;48.398;-4.274;2022-08-03T06:19:35;20.30;83.10
70269;DHT22;58514;48.398;-4.274;2022-08-03T06:22:00;20.30;83.20
70269;DHT22;58514;48.398;-4.274;2022-08-03T06:24:26;20.30;83.00
70269;DHT22;58514;48.398;-4.274;2022-08-03T06:26:51;20.20;82.90
70269;DHT22;58514;48.398;-4.274;2022-08-03T06:29:17;20.20;83.00
70269;DHT22;58514;48.398;-4.274;2022-08-03T06:31:42;20.30;82.90
70269;DHT22;58514;48.398;-4.274;2022-08-03T06:34:08;20.20;83.10
70269;DHT22;58514;48.398;-4.274;2022-08-03T06:36:33;20.30;83.50
70269;DHT22;58514;48.398;-4.274;2022-08-03T06:39:00;20.30;83.60
70269;DHT22;58514;48.398;-4.274;2022-08-03T06:41:25;20.30;83.20
70269;DHT22;58514;48.398;-4.274;2022-08-03T06:43:51;20.30;83.50
70269;DHT22;58514;48.398;-4.274;2022-08-03T06:46:17;20.40;83.60
70269;DHT22;58514;48.398;-4.274;2022-08-03T06:48:43;20.40;83.70
70269;DHT22;58514;48.398;-4.274;2022-08-03T06:51:08;20.40;83.00
70269;DHT22;58514;48.398;-4.274;2022-08-03T06:53:34;20.40;83.30
70269;DHT22;58514;48.398;-4.274;2022-08-03T06:56:00;20.50;82.70
70269;DHT22;58514;48.398;-4.274;2022-08-03T06:58:25;20.50;83.90
70269;DHT22;58514;48.398;-4.274;2022-08-03T07:00:51;20.50;82.20
70269;DHT22;58514;48.398;-4.274;2022-08-03T07:03:16;20.40;82.30
70269;DHT22;58514;48.398;-4.274;2022-08-03T07:05:42;20.40;83.00
70269;DHT22;58514;48.398;-4.274;2022-08-03T07:08:08;20.50;82.80
70269;DHT22;58514;48.398;-4.274;2022-08-03T07:10:34;20.50;82.90
70269;DHT22;58514;48.398;-4.274;2022-08-03T07:12:59;20.50;82.40
70269;DHT22;58514;48.398;-4.274;2022-08-03T07:15:25;20.50;82.60
70269;DHT22;58514;48.398;-4.274;2022-08-03T07:17:50;20.50;82.60
70269;DHT22;58514;48.398;-4.274;2022-08-03T07:20:16;20.50;82.10
70269;DHT22;58514;48.398;-4.274;2022-08-03T07:22:43;20.50;82.40
70269;DHT22;58514;48.398;-4.274;2022-08-03T07:25:08;20.50;82.40
70269;DHT22;58514;48.398;-4.274;2022-08-03T07:27:34;20.50;82.00
70269;DHT22;58514;48.398;-4.274;2022-08-03T07:30:00;20.60;82.50
70269;DHT22;58514;48.398;-4.274;2022-08-03T07:32:26;20.60;82.80
70269;DHT22;58514;48.398;-4.274;2022-08-03T07:34:52;20.70;82.60
70269;DHT22;58514;48.398;-4.274;2022-08-03T07:37:18;20.80;82.10
70269;DHT22;58514;48.398;-4.274;2022-08-03T07:39:43;20.80;82.00
70269;DHT22;58514;48.398;-4.274;2022-08-03T07:42:09;20.80;82.10
70269;DHT22;58514;48.398;-4.274;2022-08-03T07:44:35;20.90;82.40
70269;DHT22;58514;48.398;-4.274;2022-08-03T07:47:00;20.90;82.30
70269;DHT22;58514;48.398;-4.274;2022-08-03T07:49:26;21.00;81.70
70269;DHT22;58514;48.398;-4.274;2022-08-03T07:51:51;21.00;81.80
70269;DHT22;58514;48.398;-4.274;2022-08-03T07:54:35;21.10;81.90
70269;DHT22;58514;48.398;-4.274;2022-08-03T07:57:01;21.20;82.00
70269;DHT22;58514;48.398;-4.274;2022-08-03T07:59:26;21.20;81.30
70269;DHT22;58514;48.398;-4.274;2022-08-03T08:01:52;21.20;81.40
70269;DHT22;58514;48.398;-4.274;2022-08-03T08:04:18;21.30;81.50
70269;DHT22;58514;48.398;-4.274;2022-08-03T08:06:43;21.30;81.20
70269;DHT22;58514;48.398;-4.274;2022-08-03T08:09:09;21.30;81.10
70269;DHT22;58514;48.398;-4.274;2022-08-03T08:11:36;21.40;81.20
70269;DHT22;58514;48.398;-4.274;2022-08-03T08:14:01;21.50;81.30
70269;DHT22;58514;48.398;-4.274;2022-08-03T08:16:28;21.50;81.00
70269;DHT22;58514;48.398;-4.274;2022-08-03T08:18:53;21.50;80.10
70269;DHT22;58514;48.398;-4.274;2022-08-03T08:21:19;21.40;79.50
70269;DHT22;58514;48.398;-4.274;2022-08-03T08:23:44;21.40;79.50
70269;DHT22;58514;48.398;-4.274;2022-08-03T08:26:10;21.30;79.70
70269;DHT22;58514;48.398;-4.274;2022-08-03T08:28:36;21.40;80.10
70269;DHT22;58514;48.398;-4.274;2022-08-03T08:31:01;21.40;80.40
70269;DHT22;58514;48.398;-4.274;2022-08-03T08:33:27;21.50;80.50
70269;DHT22;58514;48.398;-4.274;2022-08-03T08:35:52;21.50;80.20
70269;DHT22;58514;48.398;-4.274;2022-08-03T08:38:18;21.60;80.30
70269;DHT22;58514;48.398;-4.274;2022-08-03T08:40:44;21.60;80.10
70269;DHT22;58514;48.398;-4.274;2022-08-03T08:43:09;21.70;80.70
70269;DHT22;58514;48.398;-4.274;2022-08-03T08:45:35;21.70;80.10
70269;DHT22;58514;48.398;-4.274;2022-08-03T08:48:02;21.80;80.40
70269;DHT22;58514;48.398;-4.274;2022-08-03T08:50:28;21.90;81.10
70269;DHT22;58514;48.398;-4.274;2022-08-03T08:52:53;22.10;80.70
70269;DHT22;58514;48.398;-4.274;2022-08-03T08:55:20;22.20;80.60
70269;DHT22;58514;48.398;-4.274;2022-08-03T08:57:47;22.40;80.90
70269;DHT22;58514;48.398;-4.274;2022-08-03T09:00:13;22.50;80.10
70269;DHT22;58514;48.398;-4.274;2022-08-03T09:02:40;22.60;79.30
70269;DHT22;58514;48.398;-4.274;2022-08-03T09:05:09;22.70;79.10
70269;DHT22;58514;48.398;-4.274;2022-08-03T09:07:36;22.70;77.40
70269;DHT22;58514;48.398;-4.274;2022-08-03T09:10:01;22.80;79.00
70269;DHT22;58514;48.398;-4.274;2022-08-03T09:12:27;22.80;79.50
70269;DHT22;58514;48.398;-4.274;2022-08-03T09:14:53;23.00;78.80
70269;DHT22;58514;48.398;-4.274;2022-08-03T09:17:19;23.00;78.10
70269;DHT22;58514;48.398;-4.274;2022-08-03T09:20:02;23.10;77.50
70269;DHT22;58514;48.398;-4.274;2022-08-03T09:22:28;23.20;76.80
70269;DHT22;58514;48.398;-4.274;2022-08-03T09:25:01;23.20;77.00
70269;DHT22;58514;48.398;-4.274;2022-08-03T09:27:27;23.20;76.50
70269;DHT22;58514;48.398;-4.274;2022-08-03T09:29:53;23.20;76.40
70269;DHT22;58514;48.398;-4.274;2022-08-03T09:32:22;23.30;77.80
70269;DHT22;58514;48.398;-4.274;2022-08-03T09:34:49;23.40;77.70
70269;DHT22;58514;48.398;-4.274;2022-08-03T09:37:16;23.50;77.90
70269;DHT22;58514;48.398;-4.274;2022-08-03T09:39:42;23.60;76.60
70269;DHT22;58514;48.398;-4.274;2022-08-03T09:44:44;23.60;76.70
70269;DHT22;58514;48.398;-4.274;2022-08-03T09:47:10;23.60;76.10
70269;DHT22;58514;48.398;-4.274;2022-08-03T09:49:37;23.60;74.90
70269;DHT22;58514;48.398;-4.274;2022-08-03T09:52:16;23.60;75.80
70269;DHT22;58514;48.398;-4.274;2022-08-03T09:54:50;23.60;75.20
70269;DHT22;58514;48.398;-4.274;2022-08-03T09:57:22;23.60;75.60
70269;DHT22;58514;48.398;-4.274;2022-08-03T09:59:49;23.70;77.20
70269;DHT22;58514;48.398;-4.274;2022-08-03T10:02:19;23.90;78.50
70269;DHT22;58514;48.398;-4.274;2022-08-03T10:04:48;24.10;81.90
70269;DHT22;58514;48.398;-4.274;2022-08-03T10:07:17;24.40;84.70
70269;DHT22;58514;48.398;-4.274;2022-08-03T10:12:37;25.40;89.20
70269;DHT22;58514;48.398;-4.274;2022-08-03T10:15:04;26.10;89.70
70269;DHT22;58514;48.398;-4.274;2022-08-03T10:17:29;26.70;87.50
70269;DHT22;58514;48.398;-4.274;2022-08-03T10:19:55;27.20;79.80
70269;DHT22;58514;48.398;-4.274;2022-08-03T10:22:25;27.70;83.20
70269;DHT22;58514;48.398;-4.274;2022-08-03T10:27:16;28.20;74.60
70269;DHT22;58514;48.398;-4.274;2022-08-03T10:29:44;28.50;74.40
70269;DHT22;58514;48.398;-4.274;2022-08-03T10:32:13;28.80;74.40
70269;DHT22;58514;48.398;-4.274;2022-08-03T10:34:41;29.10;66.00
70269;DHT22;58514;48.398;-4.274;2022-08-03T10:37:08;29.40;73.80
70269;DHT22;58514;48.398;-4.274;2022-08-03T10:39:34;29.80;71.30
70269;DHT22;58514;48.398;-4.274;2022-08-03T10:42:00;30.10;72.30
70269;DHT22;58514;48.398;-4.274;2022-08-03T10:44:29;30.40;68.90
70269;DHT22;58514;48.398;-4.274;2022-08-03T10:46:56;30.70;67.20
70269;DHT22;58514;48.398;-4.274;2022-08-03T10:49:22;30.90;68.60
70269;DHT22;58514;48.398;-4.274;2022-08-03T10:51:48;31.20;65.80
70269;DHT22;58514;48.398;-4.274;2022-08-03T10:56:57;31.50;61.70
70269;DHT22;58514;48.398;-4.274;2022-08-03T11:02:10;31.60;60.50
70269;DHT22;58514;48.398;-4.274;2022-08-03T11:04:38;31.80;59.00
70269;DHT22;58514;48.398;-4.274;2022-08-03T11:07:22;32.00;60.50
70269;DHT22;58514;48.398;-4.274;2022-08-03T11:09:52;32.30;59.30
70269;DHT22;58514;48.398;-4.274;2022-08-03T11:14:47;32.70;57.60
70269;DHT22;58514;48.398;-4.274;2022-08-03T11:17:13;32.80;58.10
70269;DHT22;58514;48.398;-4.274;2022-08-03T11:19:45;33.00;55.50
70269;DHT22;58514;48.398;-4.274;2022-08-03T11:22:11;33.20;51.00
70269;DHT22;58514;48.398;-4.274;2022-08-03T11:27:16;33.40;55.30
70269;DHT22;58514;48.398;-4.274;2022-08-03T11:42:59;33.90;50.30
70269;DHT22;58514;48.398;-4.274;2022-08-03T11:45:24;34.10;50.80
70269;DHT22;58514;48.398;-4.274;2022-08-03T11:47:52;34.20;49.40
70269;DHT22;58514;48.398;-4.274;2022-08-03T11:50:18;34.30;47.60
70269;DHT22;58514;48.398;-4.274;2022-08-03T11:52:45;34.40;49.90
70269;DHT22;58514;48.398;-4.274;2022-08-03T11:55:11;34.50;49.20
70269;DHT22;58514;48.398;-4.274;2022-08-03T11:57:37;34.60;48.90
70269;DHT22;58514;48.398;-4.274;2022-08-03T12:00:18;34.90;51.20
70269;DHT22;58514;48.398;-4.274;2022-08-03T12:02:53;35.10;48.00
70269;DHT22;58514;48.398;-4.274;2022-08-03T12:05:18;35.20;48.10
70269;DHT22;58514;48.398;-4.274;2022-08-03T12:07:45;35.30;47.50
70269;DHT22;58514;48.398;-4.274;2022-08-03T12:10:11;35.40;48.20
70269;DHT22;58514;48.398;-4.274;2022-08-03T12:12:37;35.60;48.20
70269;DHT22;58514;48.398;-4.274;2022-08-03T12:15:03;35.70;45.90
70269;DHT22;58514;48.398;-4.274;2022-08-03T12:17:36;35.70;46.50
70269;DHT22;58514;48.398;-4.274;2022-08-03T12:20:03;35.80;46.40
70269;DHT22;58514;48.398;-4.274;2022-08-03T12:22:30;35.90;46.30
70269;DHT22;58514;48.398;-4.274;2022-08-03T12:24:56;35.80;45.80
70269;DHT22;58514;48.398;-4.274;2022-08-03T12:27:22;35.70;45.60
70269;DHT22;58514;48.398;-4.274;2022-08-03T12:29:55;35.90;46.30
70269;DHT22;58514;48.398;-4.274;2022-08-03T12:32:22;35.90;45.60
70269;DHT22;58514;48.398;-4.274;2022-08-03T12:34:48;36.00;45.30
70269;DHT22;58514;48.398;-4.274;2022-08-03T12:37:16;36.10;44.70
70269;DHT22;58514;48.398;-4.274;2022-08-03T12:39:42;36.00;42.00
70269;DHT22;58514;48.398;-4.274;2022-08-03T12:42:13;36.00;44.30
70269;DHT22;58514;48.398;-4.274;2022-08-03T12:44:39;35.90;44.20
70269;DHT22;58514;48.398;-4.274;2022-08-03T12:47:05;35.80;41.40
70269;DHT22;58514;48.398;-4.274;2022-08-03T12:49:47;35.70;44.00
70269;DHT22;58514;48.398;-4.274;2022-08-03T12:52:13;35.60;44.10
70269;DHT22;58514;48.398;-4.274;2022-08-03T12:54:39;35.60;44.00
70269;DHT22;58514;48.398;-4.274;2022-08-03T12:57:09;35.50;43.70
70269;DHT22;58514;48.398;-4.274;2022-08-03T12:59:36;35.30;43.40
70269;DHT22;58514;48.398;-4.274;2022-08-03T13:02:02;35.00;43.20
70269;DHT22;58514;48.398;-4.274;2022-08-03T13:04:29;34.80;43.00
70269;DHT22;58514;48.398;-4.274;2022-08-03T13:06:56;34.70;44.50
70269;DHT22;58514;48.398;-4.274;2022-08-03T13:09:22;34.60;43.00
70269;DHT22;58514;48.398;-4.274;2022-08-03T13:12:03;34.60;44.00
70269;DHT22;58514;48.398;-4.274;2022-08-03T13:14:28;34.30;42.60
70269;DHT22;58514;48.398;-4.274;2022-08-03T13:16:54;34.40;44.80
70269;DHT22;58514;48.398;-4.274;2022-08-03T13:19:19;34.50;44.70
70269;DHT22;58514;48.398;-4.274;2022-08-03T13:21:45;34.60;43.90
70269;DHT22;58514;48.398;-4.274;2022-08-03T13:24:13;34.80;42.50
70269;DHT22;58514;48.398;-4.274;2022-08-03T13:26:38;34.50;42.90
70269;DHT22;58514;48.398;-4.274;2022-08-03T13:29:04;34.40;44.40
70269;DHT22;58514;48.398;-4.274;2022-08-03T13:31:30;34.40;42.80
70269;DHT22;58514;48.398;-4.274;2022-08-03T13:33:55;34.30;44.40
70269;DHT22;58514;48.398;-4.274;2022-08-03T13:36:21;34.40;43.10
70269;DHT22;58514;48.398;-4.274;2022-08-03T13:38:47;34.30;42.50
70269;DHT22;58514;48.398;-4.274;2022-08-03T13:41:12;34.40;44.60
70269;DHT22;58514;48.398;-4.274;2022-08-03T13:43:38;34.40;42.30
70269;DHT22;58514;48.398;-4.274;2022-08-03T13:46:03;34.30;43.90
70269;DHT22;58514;48.398;-4.274;2022-08-03T13:48:29;34.00;42.80
70269;DHT22;58514;48.398;-4.274;2022-08-03T13:50:54;33.90;44.00
70269;DHT22;58514;48.398;-4.274;2022-08-03T13:53:20;33.80;44.00
70269;DHT22;58514;48.398;-4.274;2022-08-03T13:55:45;33.70;44.60
70269;DHT22;58514;48.398;-4.274;2022-08-03T13:58:11;33.70;44.50
70269;DHT22;58514;48.398;-4.274;2022-08-03T14:00:37;33.70;44.30
70269;DHT22;58514;48.398;-4.274;2022-08-03T14:03:03;33.70;43.80
70269;DHT22;58514;48.398;-4.274;2022-08-03T14:05:29;33.50;43.30
70269;DHT22;58514;48.398;-4.274;2022-08-03T14:07:56;33.20;43.90
70269;DHT22;58514;48.398;-4.274;2022-08-03T14:10:21;32.90;44.60
70269;DHT22;58514;48.398;-4.274;2022-08-03T14:12:47;32.90;45.20
70269;DHT22;58514;48.398;-4.274;2022-08-03T14:15:13;32.80;44.90
70269;DHT22;58514;48.398;-4.274;2022-08-03T14:17:38;32.90;45.70
70269;DHT22;58514;48.398;-4.274;2022-08-03T14:20:05;33.00;45.70
70269;DHT22;58514;48.398;-4.274;2022-08-03T14:22:31;32.90;45.10
70269;DHT22;58514;48.398;-4.274;2022-08-03T14:24:56;32.90;45.10
70269;DHT22;58514;48.398;-4.274;2022-08-03T14:27:22;32.90;45.30
70269;DHT22;58514;48.398;-4.274;2022-08-03T14:29:47;32.90;44.70
70269;DHT22;58514;48.398;-4.274;2022-08-03T14:32:13;32.70;45.40
70269;DHT22;58514;48.398;-4.274;2022-08-03T14:34:39;32.50;45.00
70269;DHT22;58514;48.398;-4.274;2022-08-03T14:37:04;32.40;45.30
70269;DHT22;58514;48.398;-4.274;2022-08-03T14:39:30;32.10;44.90
70269;DHT22;58514;48.398;-4.274;2022-08-03T14:41:56;31.90;45.20
70269;DHT22;58514;48.398;-4.274;2022-08-03T14:44:21;31.50;45.60
70269;DHT22;58514;48.398;-4.274;2022-08-03T14:46:47;31.30;46.30
70269;DHT22;58514;48.398;-4.274;2022-08-03T14:49:12;31.10;46.70
70269;DHT22;58514;48.398;-4.274;2022-08-03T14:51:38;30.70;46.60
70269;DHT22;58514;48.398;-4.274;2022-08-03T14:54:04;30.40;46.70
70269;DHT22;58514;48.398;-4.274;2022-08-03T14:56:30;30.20;47.40
70269;DHT22;58514;48.398;-4.274;2022-08-03T14:58:55;29.90;47.60
70269;DHT22;58514;48.398;-4.274;2022-08-03T15:01:21;29.90;48.20
70269;DHT22;58514;48.398;-4.274;2022-08-03T15:03:46;30.00;48.80
70269;DHT22;58514;48.398;-4.274;2022-08-03T15:06:13;30.20;48.90
70269;DHT22;58514;48.398;-4.274;2022-08-03T15:08:38;30.20;48.10
70269;DHT22;58514;48.398;-4.274;2022-08-03T15:11:04;30.20;48.30
70269;DHT22;58514;48.398;-4.274;2022-08-03T15:13:29;30.10;48.90
70269;DHT22;58514;48.398;-4.274;2022-08-03T15:15:55;30.00;48.70
70269;DHT22;58514;48.398;-4.274;2022-08-03T15:18:22;29.80;49.20
70269;DHT22;58514;48.398;-4.274;2022-08-03T15:20:47;29.60;49.30
70269;DHT22;58514;48.398;-4.274;2022-08-03T15:23:15;29.40;49.40
70269;DHT22;58514;48.398;-4.274;2022-08-03T15:25:41;29.30;49.40
70269;DHT22;58514;48.398;-4.274;2022-08-03T15:28:07;29.30;50.30
70269;DHT22;58514;48.398;-4.274;2022-08-03T15:30:32;29.20;50.20
70269;DHT22;58514;48.398;-4.274;2022-08-03T15:33:01;29.10;49.90
70269;DHT22;58514;48.398;-4.274;2022-08-03T15:35:27;29.10;50.90
70269;DHT22;58514;48.398;-4.274;2022-08-03T15:37:53;29.10;51.40
70269;DHT22;58514;48.398;-4.274;2022-08-03T15:40:18;29.10;50.70
70269;DHT22;58514;48.398;-4.274;2022-08-03T15:42:44;29.20;51.40
70269;DHT22;58514;48.398;-4.274;2022-08-03T15:45:10;29.20;50.60
70269;DHT22;58514;48.398;-4.274;2022-08-03T15:47:35;29.30;50.70
70269;DHT22;58514;48.398;-4.274;2022-08-03T15:50:01;29.20;50.90
70269;DHT22;58514;48.398;-4.274;2022-08-03T15:52:26;29.20;50.60
70269;DHT22;58514;48.398;-4.274;2022-08-03T15:54:52;29.20;51.00
70269;DHT22;58514;48.398;-4.274;2022-08-03T15:57:18;29.20;51.30
70269;DHT22;58514;48.398;-4.274;2022-08-03T15:59:43;29.10;50.90
70269;DHT22;58514;48.398;-4.274;2022-08-03T16:02:09;29.00;51.10
70269;DHT22;58514;48.398;-4.274;2022-08-03T16:04:34;28.80;51.30
70269;DHT22;58514;48.398;-4.274;2022-08-03T16:07:00;28.70;52.50
70269;DHT22;58514;48.398;-4.274;2022-08-03T16:09:26;28.60;52.40